sensor_id;sensor_type;location;lat;lon;timestamp;pressure;altitude;pressure_sealevel;temperature;humidity
17060;BME280;8646;49.716;9.266;2023-05-11T00:01:13;100080.00;;;12.66;87.78
17060;BME280;8646;49.716;9.266;2023-05-11T00:04:17;100083.53;;;12.68;87.35
17060;BME280;8646;49.716;9.266;2023-05-11T00:07:20;100077.41;;;12.64;87.16
17060;BME280;8646;49.716;9.266;2023-05-11T00:10:22;100076.59;;;12.62;87.08
17060;BME280;8646;49.716;9.266;2023-05-11T00:13:25;100084.81;;;12.60;87.27
17060;BME280;8646;49.716;9.266;2023-05-11T00:16:28;100076.84;;;12.57;87.12
17060;BME280;8646;49.716;9.266;2023-05-11T00:19:32;100074.13;;;12.57;87.15
17060;BME280;8646;49.716;9.266;2023-05-11T00:22:35;100076.06;;;12.55;86.76
17060;BME280;8646;49.716;9.266;2023-05-11T00:25:38;100070.66;;;12.55;86.75
17060;BME280;8646;49.716;9.266;2023-05-11T00:28:41;100068.69;;;12.57;87.03
17060;BME280;8646;49.716;9.266;2023-05-11T00:31:43;100068.88;;;12.54;86.68
17060;BME280;8646;49.716;9.266;2023-05-11T00:34:49;100068.81;;;12.56;86.76
17060;BME280;8646;49.716;9.266;2023-05-11T00:37:52;100066.97;;;12.56;86.70
17060;BME280;8646;49.716;9.266;2023-05-11T00:40:55;100057.22;;;12.52;86.83
17060;BME280;8646;49.716;9.266;2023-05-11T00:43:57;100057.06;;;12.55;86.89
17060;BME280;8646;49.716;9.266;2023-05-11T00:47:00;100058.91;;;12.55;86.85
17060;BME280;8646;49.716;9.266;2023-05-11T00:50:06;100057.16;;;12.54;87.08
17060;BME280;8646;49.716;9.266;2023-05-11T00:53:09;100054.34;;;12.55;87.06
17060;BME280;8646;49.716;9.266;2023-05-11T00:56:14;100049.88;;;12.54;86.88
17060;BME280;8646;49.716;9.266;2023-05-11T00:59:17;100054.50;;;12.52;86.79
17060;BME280;8646;49.716;9.266;2023-05-11T01:02:20;100048.38;;;12.49;86.87
17060;BME280;8646;49.716;9.266;2023-05-11T01:05:28;100054.59;;;12.51;87.05
17060;BME280;8646;49.716;9.266;2023-05-11T01:08:39;100055.75;;;12.47;87.04
17060;BME280;8646;49.716;9.266;2023-05-11T01:11:49;100063.81;;;12.48;86.94
17060;BME280;8646;49.716;9.266;2023-05-11T01:14:57;100047.59;;;12.47;86.79
17060;BME280;8646;49.716;9.266;2023-05-11T01:18:10;100051.34;;;12.44;86.70
17060;BME280;8646;49.716;9.266;2023-05-11T01:21:18;100047.66;;;12.45;86.93
17060;BME280;8646;49.716;9.266;2023-05-11T01:24:31;100052.56;;;12.39;86.91
17060;BME280;8646;49.716;9.266;2023-05-11T01:27:53;100044.50;;;12.37;87.14
17060;BME280;8646;49.716;9.266;2023-05-11T01:31:06;100048.97;;;12.38;87.02
17060;BME280;8646;49.716;9.266;2023-05-11T01:34:12;100048.09;;;12.38;87.38
17060;BME280;8646;49.716;9.266;2023-05-11T01:37:18;100049.19;;;12.34;87.08
17060;BME280;8646;49.716;9.266;2023-05-11T01:40:27;100051.91;;;12.34;87.12
17060;BME280;8646;49.716;9.266;2023-05-11T01:43:34;100047.56;;;12.31;87.15
17060;BME280;8646;49.716;9.266;2023-05-11T01:46:46;100046.91;;;12.26;87.37
17060;BME280;8646;49.716;9.266;2023-05-11T01:49:51;100052.50;;;12.23;87.39
17060;BME280;8646;49.716;9.266;2023-05-11T01:52:55;100054.44;;;12.21;87.60
17060;BME280;8646;49.716;9.266;2023-05-11T01:55:59;100043.56;;;12.21;87.52
17060;BME280;8646;49.716;9.266;2023-05-11T01:59:03;100054.44;;;12.21;87.75
17060;BME280;8646;49.716;9.266;2023-05-11T02:02:08;100042.97;;;12.16;87.62
17060;BME280;8646;49.716;9.266;2023-05-11T02:05:14;100052.19;;;12.12;87.75
17060;BME280;8646;49.716;9.266;2023-05-11T02:08:20;100046.78;;;12.12;87.52
17060;BME280;8646;49.716;9.266;2023-05-11T02:11:25;100047.72;;;12.11;87.88
17060;BME280;8646;49.716;9.266;2023-05-11T02:14:31;100056.81;;;12.10;87.86
17060;BME280;8646;49.716;9.266;2023-05-11T02:17:37;100050.78;;;12.05;87.68
17060;BME280;8646;49.716;9.266;2023-05-11T02:20:42;100047.09;;;12.06;87.89
17060;BME280;8646;49.716;9.266;2023-05-11T02:23:46;100041.69;;;12.06;88.26
17060;BME280;8646;49.716;9.266;2023-05-11T02:26:50;100043.66;;;12.02;88.38
17060;BME280;8646;49.716;9.266;2023-05-11T02:29:53;100040.06;;;12.02;88.16
17060;BME280;8646;49.716;9.266;2023-05-11T02:33:04;100043.84;;;11.99;87.99
17060;BME280;8646;49.716;9.266;2023-05-11T02:36:08;100045.75;;;11.97;88.21
17060;BME280;8646;49.716;9.266;2023-05-11T02:39:12;100046.63;;;11.98;88.37
17060;BME280;8646;49.716;9.266;2023-05-11T02:42:20;100046.97;;;11.92;88.40
17060;BME280;8646;49.716;9.266;2023-05-11T02:45:27;100045.22;;;11.91;88.26
17060;BME280;8646;49.716;9.266;2023-05-11T02:48:38;100040.97;;;11.85;88.28
17060;BME280;8646;49.716;9.266;2023-05-11T02:51:43;100037.31;;;11.86;88.31
17060;BME280;8646;49.716;9.266;2023-05-11T02:54:47;100047.25;;;11.85;88.47
17060;BME280;8646;49.716;9.266;2023-05-11T02:57:52;100047.25;;;11.85;88.78
17060;BME280;8646;49.716;9.266;2023-05-11T03:00:55;100046.50;;;11.83;89.02
17060;BME280;8646;49.716;9.266;2023-05-11T03:04:03;100047.44;;;11.82;88.65
17060;BME280;8646;49.716;9.266;2023-05-11T03:07:07;100045.84;;;11.78;89.03
17060;BME280;8646;49.716;9.266;2023-05-11T03:10:10;100044.88;;;11.79;89.40
17060;BME280;8646;49.716;9.266;2023-05-11T03:13:13;100036.03;;;11.76;89.05
17060;BME280;8646;49.716;9.266;2023-05-11T03:16:17;100039.75;;;11.73;89.19
17060;BME280;8646;49.716;9.266;2023-05-11T03:19:23;100037.03;;;11.73;89.57
17060;BME280;8646;49.716;9.266;2023-05-11T03:22:29;100046.00;;;11.75;89.41
17060;BME280;8646;49.716;9.266;2023-05-11T03:25:33;100049.72;;;11.73;89.39
17060;BME280;8646;49.716;9.266;2023-05-11T03:28:37;100047.09;;;11.71;89.34
17060;BME280;8646;49.716;9.266;2023-05-11T03:31:40;100043.50;;;11.71;89.26
17060;BME280;8646;49.716;9.266;2023-05-11T03:34:44;100037.13;;;11.72;89.38
17060;BME280;8646;49.716;9.266;2023-05-11T03:37:47;100038.00;;;11.72;89.56
17060;BME280;8646;49.716;9.266;2023-05-11T03:40:52;100038.84;;;11.74;89.48
17060;BME280;8646;49.716;9.266;2023-05-11T03:43:58;100041.44;;;11.76;89.44
17060;BME280;8646;49.716;9.266;2023-05-11T03:47:02;100042.31;;;11.76;89.58
17060;BME280;8646;49.716;9.266;2023-05-11T03:50:08;100035.16;;;11.75;89.79
17060;BME280;8646;49.716;9.266;2023-05-11T03:53:13;100038.66;;;11.77;89.80
17060;BME280;8646;49.716;9.266;2023-05-11T03:56:17;100037.69;;;11.78;89.80
17060;BME280;8646;49.716;9.266;2023-05-11T03:59:19;100037.56;;;11.81;89.59
17060;BME280;8646;49.716;9.266;2023-05-11T04:02:22;100027.88;;;11.76;89.62
17060;BME280;8646;49.716;9.266;2023-05-11T04:05:27;100037.22;;;11.88;89.54
17060;BME280;8646;49.716;9.266;2023-05-11T04:08:29;100037.84;;;11.93;89.39
17060;BME280;8646;49.716;9.266;2023-05-11T04:11:39;100039.47;;;11.97;89.45
17060;BME280;8646;49.716;9.266;2023-05-11T04:14:42;100031.47;;;11.94;89.57
17060;BME280;8646;49.716;9.266;2023-05-11T04:17:45;100030.50;;;11.95;89.71
17060;BME280;8646;49.716;9.266;2023-05-11T04:20:49;100032.13;;;11.99;89.28
17060;BME280;8646;49.716;9.266;2023-05-11T04:23:51;100036.66;;;11.98;89.26
17060;BME280;8646;49.716;9.266;2023-05-11T04:26:55;100030.19;;;12.01;89.42
17060;BME280;8646;49.716;9.266;2023-05-11T04:29:57;100027.41;;;12.02;89.24
17060;BME280;8646;49.716;9.266;2023-05-11T04:33:00;100027.25;;;12.05;89.06
17060;BME280;8646;49.716;9.266;2023-05-11T04:36:08;100037.91;;;12.08;89.00
17060;BME280;8646;49.716;9.266;2023-05-11T04:39:11;100043.34;;;12.08;88.85
17060;BME280;8646;49.716;9.266;2023-05-11T04:42:15;100031.47;;;12.11;88.95
17060;BME280;8646;49.716;9.266;2023-05-11T04:45:18;100036.81;;;12.12;88.63
17060;BME280;8646;49.716;9.266;2023-05-11T04:48:21;100042.50;;;12.08;88.65
17060;BME280;8646;49.716;9.266;2023-05-11T04:51:25;100041.59;;;12.07;88.79
17060;BME280;8646;49.716;9.266;2023-05-11T04:54:28;100034.97;;;12.13;88.81
17060;BME280;8646;49.716;9.266;2023-05-11T04:57:31;100040.94;;;12.19;88.81
17060;BME280;8646;49.716;9.266;2023-05-11T05:00:35;100041.31;;;12.29;88.52
17060;BME280;8646;49.716;9.266;2023-05-11T05:03:37;100039.41;;;12.31;88.47
17060;BME280;8646;49.716;9.266;2023-05-11T05:06:42;100040.97;;;12.35;88.51
17060;BME280;8646;49.716;9.266;2023-05-11T05:09:45;100038.91;;;12.40;88.30
17060;BME280;8646;49.716;9.266;2023-05-11T05:12:48;100041.53;;;12.42;88.37
17060;BME280;8646;49.716;9.266;2023-05-11T05:15:50;100045.75;;;12.47;88.21
17060;BME280;8646;49.716;9.266;2023-05-11T05:18:53;100050.13;;;12.50;88.05
17060;BME280;8646;49.716;9.266;2023-05-11T05:21:57;100044.38;;;12.56;87.76
17060;BME280;8646;49.716;9.266;2023-05-11T05:25:00;100056.72;;;12.61;87.81
17060;BME280;8646;49.716;9.266;2023-05-11T05:28:03;100048.22;;;12.68;87.51
17060;BME280;8646;49.716;9.266;2023-05-11T05:31:06;100045.28;;;12.72;87.41
17060;BME280;8646;49.716;9.266;2023-05-11T05:34:09;100057.63;;;12.78;87.19
17060;BME280;8646;49.716;9.266;2023-05-11T05:37:14;100051.03;;;12.82;87.35
17060;BME280;8646;49.716;9.266;2023-05-11T05:40:17;100052.47;;;12.89;87.39
17060;BME280;8646;49.716;9.266;2023-05-11T05:43:21;100035.63;;;12.82;86.96
17060;BME280;8646;49.716;9.266;2023-05-11T05:46:23;100025.50;;;12.86;87.06
17060;BME280;8646;49.716;9.266;2023-05-11T05:49:26;100056.69;;;13.10;86.80
17060;BME280;8646;49.716;9.266;2023-05-11T05:52:30;100066.19;;;13.19;86.58
17060;BME280;8646;49.716;9.266;2023-05-11T05:55:33;100064.84;;;13.26;86.08
17060;BME280;8646;49.716;9.266;2023-05-11T05:58:35;100057.06;;;13.35;85.76
17060;BME280;8646;49.716;9.266;2023-05-11T06:01:38;100064.69;;;13.45;85.53
17060;BME280;8646;49.716;9.266;2023-05-11T06:04:45;100063.94;;;13.57;85.27
17060;BME280;8646;49.716;9.266;2023-05-11T06:07:50;100067.00;;;13.66;84.92
17060;BME280;8646;49.716;9.266;2023-05-11T06:11:09;100069.97;;;13.78;84.78
17060;BME280;8646;49.716;9.266;2023-05-11T06:14:12;100063.09;;;13.86;84.47
17060;BME280;8646;49.716;9.266;2023-05-11T06:17:18;100073.53;;;13.94;84.25
17060;BME280;8646;49.716;9.266;2023-05-11T06:20:21;100074.81;;;14.02;83.68
17060;BME280;8646;49.716;9.266;2023-05-11T06:23:26;100070.91;;;14.06;83.37
17060;BME280;8646;49.716;9.266;2023-05-11T06:26:28;100073.06;;;14.16;83.41
17060;BME280;8646;49.716;9.266;2023-05-11T06:29:31;100069.88;;;14.23;83.37
17060;BME280;8646;49.716;9.266;2023-05-11T06:32:34;100069.22;;;14.34;82.98
17060;BME280;8646;49.716;9.266;2023-05-11T06:35:36;100061.19;;;14.46;82.74
17060;BME280;8646;49.716;9.266;2023-05-11T06:38:41;100055.06;;;14.57;82.62
17060;BME280;8646;49.716;9.266;2023-05-11T06:41:44;100061.31;;;14.73;81.93
17060;BME280;8646;49.716;9.266;2023-05-11T06:44:46;100059.75;;;14.83;81.58
17060;BME280;8646;49.716;9.266;2023-05-11T06:47:49;100046.59;;;14.90;81.31
17060;BME280;8646;49.716;9.266;2023-05-11T06:50:52;100049.00;;;14.95;80.87
17060;BME280;8646;49.716;9.266;2023-05-11T06:53:56;100049.47;;;15.01;80.48
17060;BME280;8646;49.716;9.266;2023-05-11T06:56:59;100050.81;;;15.08;80.17
17060;BME280;8646;49.716;9.266;2023-05-11T07:00:05;100049.47;;;15.15;79.92
17060;BME280;8646;49.716;9.266;2023-05-11T07:03:08;100047.41;;;15.19;79.94
17060;BME280;8646;49.716;9.266;2023-05-11T07:06:10;100056.22;;;15.37;79.91
17060;BME280;8646;49.716;9.266;2023-05-11T07:09:15;100057.28;;;15.48;79.02
17060;BME280;8646;49.716;9.266;2023-05-11T07:12:18;100056.66;;;15.57;79.11
17060;BME280;8646;49.716;9.266;2023-05-11T07:15:21;100059.88;;;15.64;78.36
17060;BME280;8646;49.716;9.266;2023-05-11T07:18:23;100061.19;;;15.71;78.38
17060;BME280;8646;49.716;9.266;2023-05-11T07:21:26;100059.69;;;15.80;77.51
17060;BME280;8646;49.716;9.266;2023-05-11T07:24:30;100060.78;;;15.90;77.27
17060;BME280;8646;49.716;9.266;2023-05-11T07:27:33;100054.72;;;15.99;77.16
17060;BME280;8646;49.716;9.266;2023-05-11T07:30:36;100061.81;;;16.01;76.41
17060;BME280;8646;49.716;9.266;2023-05-11T07:33:39;100057.69;;;16.09;76.42
17060;BME280;8646;49.716;9.266;2023-05-11T07:36:41;100058.13;;;16.15;76.26
17060;BME280;8646;49.716;9.266;2023-05-11T07:39:45;100064.91;;;16.22;76.06
17060;BME280;8646;49.716;9.266;2023-05-11T07:42:48;100055.41;;;16.28;75.17
17060;BME280;8646;49.716;9.266;2023-05-11T07:45:57;100050.06;;;16.26;74.97
17060;BME280;8646;49.716;9.266;2023-05-11T07:49:00;100061.13;;;16.37;74.64
17060;BME280;8646;49.716;9.266;2023-05-11T07:52:20;100056.00;;;16.46;74.08
17060;BME280;8646;49.716;9.266;2023-05-11T07:55:24;100058.28;;;16.52;73.62
17060;BME280;8646;49.716;9.266;2023-05-11T07:58:28;100047.78;;;16.58;72.83
17060;BME280;8646;49.716;9.266;2023-05-11T08:01:31;100048.22;;;16.65;72.35
17060;BME280;8646;49.716;9.266;2023-05-11T08:04:34;100046.91;;;16.70;72.44
17060;BME280;8646;49.716;9.266;2023-05-11T08:07:37;100046.03;;;16.83;72.34
17060;BME280;8646;49.716;9.266;2023-05-11T08:10:43;100040.22;;;16.87;71.56
17060;BME280;8646;49.716;9.266;2023-05-11T08:13:46;100050.38;;;16.98;71.38
17060;BME280;8646;49.716;9.266;2023-05-11T08:16:50;100050.59;;;17.07;70.96
17060;BME280;8646;49.716;9.266;2023-05-11T08:19:53;100042.69;;;17.15;70.16
17060;BME280;8646;49.716;9.266;2023-05-11T08:23:01;100051.19;;;17.24;69.92
17060;BME280;8646;49.716;9.266;2023-05-11T08:26:06;100051.97;;;17.26;69.42
17060;BME280;8646;49.716;9.266;2023-05-11T08:29:09;100051.81;;;17.27;69.13
17060;BME280;8646;49.716;9.266;2023-05-11T08:32:15;100050.50;;;17.33;68.85
17060;BME280;8646;49.716;9.266;2023-05-11T08:35:18;100049.28;;;17.37;68.45
17060;BME280;8646;49.716;9.266;2023-05-11T08:38:22;100045.34;;;17.41;67.97
17060;BME280;8646;49.716;9.266;2023-05-11T08:41:27;100042.13;;;17.47;67.87
17060;BME280;8646;49.716;9.266;2023-05-11T08:44:31;100052.59;;;17.53;67.93
17060;BME280;8646;49.716;9.266;2023-05-11T08:47:35;100051.41;;;17.57;67.81
17060;BME280;8646;49.716;9.266;2023-05-11T08:50:38;100049.97;;;17.51;66.97
17060;BME280;8646;49.716;9.266;2023-05-11T08:53:41;100049.28;;;17.37;67.07
17060;BME280;8646;49.716;9.266;2023-05-11T08:56:46;100052.19;;;17.46;67.67
17060;BME280;8646;49.716;9.266;2023-05-11T08:59:50;100053.22;;;17.69;67.42
17060;BME280;8646;49.716;9.266;2023-05-11T09:02:54;100047.00;;;17.91;66.53
17060;BME280;8646;49.716;9.266;2023-05-11T09:05:59;100046.31;;;18.11;66.44
17060;BME280;8646;49.716;9.266;2023-05-11T09:09:03;100042.72;;;18.33;66.30
17060;BME280;8646;49.716;9.266;2023-05-11T09:12:08;100037.31;;;18.55;65.94
17060;BME280;8646;49.716;9.266;2023-05-11T09:15:11;100044.81;;;18.76;65.61
17060;BME280;8646;49.716;9.266;2023-05-11T09:18:14;100047.69;;;18.85;64.46
17060;BME280;8646;49.716;9.266;2023-05-11T09:21:19;100035.22;;;18.81;63.28
17060;BME280;8646;49.716;9.266;2023-05-11T09:24:22;100030.75;;;18.91;63.54
17060;BME280;8646;49.716;9.266;2023-05-11T09:27:26;100033.09;;;19.07;63.22
17060;BME280;8646;49.716;9.266;2023-05-11T09:30:28;100041.09;;;19.10;62.34
17060;BME280;8646;49.716;9.266;2023-05-11T09:33:31;100039.34;;;19.20;62.92
17060;BME280;8646;49.716;9.266;2023-05-11T09:36:34;100038.28;;;19.32;62.73
17060;BME280;8646;49.716;9.266;2023-05-11T09:39:36;100039.03;;;19.46;61.91
17060;BME280;8646;49.716;9.266;2023-05-11T09:43:01;100029.53;;;19.61;61.60
17060;BME280;8646;49.716;9.266;2023-05-11T09:46:04;100028.75;;;19.70;60.57
17060;BME280;8646;49.716;9.266;2023-05-11T09:49:09;100029.47;;;19.72;59.48
17060;BME280;8646;49.716;9.266;2023-05-11T09:52:13;100030.22;;;19.74;58.89
17060;BME280;8646;49.716;9.266;2023-05-11T09:55:25;100026.94;;;19.80;59.13
17060;BME280;8646;49.716;9.266;2023-05-11T09:58:46;100025.03;;;19.92;59.28
17060;BME280;8646;49.716;9.266;2023-05-11T10:01:49;100025.38;;;19.98;59.63
17060;BME280;8646;49.716;9.266;2023-05-11T10:04:53;100024.84;;;20.04;59.06
17060;BME280;8646;49.716;9.266;2023-05-11T10:07:57;100026.34;;;20.08;57.99
17060;BME280;8646;49.716;9.266;2023-05-11T10:11:00;100031.69;;;20.10;57.21
17060;BME280;8646;49.716;9.266;2023-05-11T10:14:05;100019.84;;;20.09;56.83
17060;BME280;8646;49.716;9.266;2023-05-11T10:17:11;100009.66;;;20.00;57.18
17060;BME280;8646;49.716;9.266;2023-05-11T10:20:15;100013.25;;;20.01;57.01
17060;BME280;8646;49.716;9.266;2023-05-11T10:23:19;100020.56;;;20.11;57.27
17060;BME280;8646;49.716;9.266;2023-05-11T10:26:23;100021.16;;;20.15;56.14
17060;BME280;8646;49.716;9.266;2023-05-11T10:29:28;100018.28;;;20.16;56.90
17060;BME280;8646;49.716;9.266;2023-05-11T10:32:35;100015.13;;;20.21;57.12
17060;BME280;8646;49.716;9.266;2023-05-11T10:35:38;100001.72;;;20.28;56.79
17060;BME280;8646;49.716;9.266;2023-05-11T10:38:42;100011.63;;;20.51;56.83
17060;BME280;8646;49.716;9.266;2023-05-11T10:41:56;100007.94;;;20.71;57.25
17060;BME280;8646;49.716;9.266;2023-05-11T10:45:13;99997.44;;;20.86;56.69
17060;BME280;8646;49.716;9.266;2023-05-11T10:48:47;100004.28;;;20.91;55.54
17060;BME280;8646;49.716;9.266;2023-05-11T10:52:08;99999.88;;;20.79;53.83
17060;BME280;8646;49.716;9.266;2023-05-11T10:55:24;99991.56;;;20.39;53.80
17060;BME280;8646;49.716;9.266;2023-05-11T10:58:41;99994.91;;;20.22;55.07
17060;BME280;8646;49.716;9.266;2023-05-11T11:01:50;99996.09;;;20.29;55.14
17060;BME280;8646;49.716;9.266;2023-05-11T11:04:55;100002.69;;;20.38;55.49
17060;BME280;8646;49.716;9.266;2023-05-11T11:08:01;99992.81;;;20.56;55.41
17060;BME280;8646;49.716;9.266;2023-05-11T11:11:27;100001.13;;;20.66;56.01
17060;BME280;8646;49.716;9.266;2023-05-11T11:14:53;99992.06;;;20.75;55.93
17060;BME280;8646;49.716;9.266;2023-05-11T11:18:22;99998.31;;;20.86;55.12
17060;BME280;8646;49.716;9.266;2023-05-11T11:21:38;99987.22;;;20.98;55.56
17060;BME280;8646;49.716;9.266;2023-05-11T11:24:42;99990.66;;;20.90;55.36
17060;BME280;8646;49.716;9.266;2023-05-11T11:27:57;99992.16;;;21.04;55.31
17060;BME280;8646;49.716;9.266;2023-05-11T11:31:21;99985.66;;;21.05;54.71
17060;BME280;8646;49.716;9.266;2023-05-11T11:34:33;99988.84;;;21.10;53.65
17060;BME280;8646;49.716;9.266;2023-05-11T11:37:58;99987.16;;;21.18;53.76
17060;BME280;8646;49.716;9.266;2023-05-11T11:41:06;99986.44;;;21.26;53.99
17060;BME280;8646;49.716;9.266;2023-05-11T11:44:19;99987.03;;;21.20;52.79
17060;BME280;8646;49.716;9.266;2023-05-11T11:47:22;99987.75;;;21.22;52.45
17060;BME280;8646;49.716;9.266;2023-05-11T11:50:28;99991.94;;;21.26;53.41
17060;BME280;8646;49.716;9.266;2023-05-11T11:57:41;99991.41;;;21.32;53.20
17060;BME280;8646;49.716;9.266;2023-05-11T12:00:46;99985.75;;;21.43;53.02
17060;BME280;8646;49.716;9.266;2023-05-11T12:04:08;99984.47;;;21.47;52.32
17060;BME280;8646;49.716;9.266;2023-05-11T12:07:18;99987.63;;;21.43;50.87
17060;BME280;8646;49.716;9.266;2023-05-11T12:10:21;99986.38;;;21.07;50.59
17060;BME280;8646;49.716;9.266;2023-05-11T12:13:25;99983.72;;;20.95;50.78
17060;BME280;8646;49.716;9.266;2023-05-11T12:16:28;99985.44;;;20.87;50.54
17060;BME280;8646;49.716;9.266;2023-05-11T12:19:33;99980.91;;;20.76;51.18
17060;BME280;8646;49.716;9.266;2023-05-11T12:22:38;99984.50;;;20.67;51.81
17060;BME280;8646;49.716;9.266;2023-05-11T12:25:41;99981.84;;;20.56;52.60
17060;BME280;8646;49.716;9.266;2023-05-11T12:28:44;99984.66;;;20.45;52.11
17060;BME280;8646;49.716;9.266;2023-05-11T12:31:50;99992.00;;;20.35;52.36
17060;BME280;8646;49.716;9.266;2023-05-11T12:34:56;99976.88;;;20.29;52.87
17060;BME280;8646;49.716;9.266;2023-05-11T12:38:09;99992.44;;;20.40;52.15
17060;BME280;8646;49.716;9.266;2023-05-11T12:41:17;99986.28;;;20.27;51.48
17060;BME280;8646;49.716;9.266;2023-05-11T12:44:23;99981.84;;;20.14;52.10
17060;BME280;8646;49.716;9.266;2023-05-11T12:47:30;99984.50;;;20.05;52.90
17060;BME280;8646;49.716;9.266;2023-05-11T12:50:38;99977.22;;;20.15;51.94
17060;BME280;8646;49.716;9.266;2023-05-11T12:53:42;99983.97;;;20.32;52.15
17060;BME280;8646;49.716;9.266;2023-05-11T12:56:46;99972.53;;;20.47;51.08
17060;BME280;8646;49.716;9.266;2023-05-11T13:00:04;99970.00;;;20.65;50.49
17060;BME280;8646;49.716;9.266;2023-05-11T13:03:09;99977.97;;;20.38;50.16
17060;BME280;8646;49.716;9.266;2023-05-11T13:06:12;99974.94;;;20.20;51.81
17060;BME280;8646;49.716;9.266;2023-05-11T13:09:22;99977.56;;;20.01;52.41
17060;BME280;8646;49.716;9.266;2023-05-11T13:12:26;99978.09;;;19.63;55.27
17060;BME280;8646;49.716;9.266;2023-05-11T13:15:32;99988.72;;;19.13;57.76
17060;BME280;8646;49.716;9.266;2023-05-11T13:18:36;99985.53;;;18.97;58.78
17060;BME280;8646;49.716;9.266;2023-05-11T13:21:39;99991.25;;;18.94;59.20
17060;BME280;8646;49.716;9.266;2023-05-11T13:24:43;99989.75;;;18.67;62.33
17060;BME280;8646;49.716;9.266;2023-05-11T13:27:46;99986.53;;;18.62;64.15
17060;BME280;8646;49.716;9.266;2023-05-11T13:30:49;99992.00;;;18.74;64.38
17060;BME280;8646;49.716;9.266;2023-05-11T13:33:52;99984.66;;;18.63;62.66
17060;BME280;8646;49.716;9.266;2023-05-11T13:36:55;99984.28;;;18.56;62.63
17060;BME280;8646;49.716;9.266;2023-05-11T13:39:59;99976.56;;;18.61;62.02
17060;BME280;8646;49.716;9.266;2023-05-11T13:43:03;99995.34;;;18.55;62.12
17060;BME280;8646;49.716;9.266;2023-05-11T13:46:06;99991.44;;;18.35;62.06
17060;BME280;8646;49.716;9.266;2023-05-11T13:49:09;99985.72;;;18.16;63.57
17060;BME280;8646;49.716;9.266;2023-05-11T13:52:11;99989.66;;;18.12;64.12
17060;BME280;8646;49.716;9.266;2023-05-11T13:55:16;99987.91;;;18.00;64.96
17060;BME280;8646;49.716;9.266;2023-05-11T13:58:20;99993.28;;;17.66;66.16
17060;BME280;8646;49.716;9.266;2023-05-11T14:01:23;99986.06;;;17.76;66.99
17060;BME280;8646;49.716;9.266;2023-05-11T14:04:26;99989.63;;;17.89;67.17
17060;BME280;8646;49.716;9.266;2023-05-11T14:07:29;99982.13;;;17.80;67.15
17060;BME280;8646;49.716;9.266;2023-05-11T14:10:48;99983.00;;;17.92;65.98
17060;BME280;8646;49.716;9.266;2023-05-11T14:13:51;99981.63;;;17.86;66.44
17060;BME280;8646;49.716;9.266;2023-05-11T14:16:54;99980.59;;;17.65;65.74
17060;BME280;8646;49.716;9.266;2023-05-11T14:19:57;99972.94;;;17.81;64.27
17060;BME280;8646;49.716;9.266;2023-05-11T14:22:59;99976.06;;;17.88;64.72
17060;BME280;8646;49.716;9.266;2023-05-11T14:26:04;99973.09;;;18.02;64.70
17060;BME280;8646;49.716;9.266;2023-05-11T14:29:07;99963.53;;;18.08;64.30
17060;BME280;8646;49.716;9.266;2023-05-11T14:32:17;99959.81;;;18.20;63.91
17060;BME280;8646;49.716;9.266;2023-05-11T14:35:20;99965.16;;;18.33;63.95
17060;BME280;8646;49.716;9.266;2023-05-11T14:38:23;99953.25;;;18.45;63.15
17060;BME280;8646;49.716;9.266;2023-05-11T14:41:27;99956.97;;;18.55;63.90
17060;BME280;8646;49.716;9.266;2023-05-11T14:44:30;99957.84;;;18.55;63.37
17060;BME280;8646;49.716;9.266;2023-05-11T14:47:33;99949.38;;;18.47;63.96
17060;BME280;8646;49.716;9.266;2023-05-11T14:50:36;99952.13;;;18.47;64.44
17060;BME280;8646;49.716;9.266;2023-05-11T14:53:39;99953.59;;;18.51;64.87
17060;BME280;8646;49.716;9.266;2023-05-11T14:56:43;99952.88;;;18.60;64.58
17060;BME280;8646;49.716;9.266;2023-05-11T14:59:51;99953.78;;;18.72;64.19
17060;BME280;8646;49.716;9.266;2023-05-11T15:03:01;99943.91;;;18.81;63.95
17060;BME280;8646;49.716;9.266;2023-05-11T15:06:05;99944.91;;;18.80;64.19
17060;BME280;8646;49.716;9.266;2023-05-11T15:09:08;99941.91;;;18.83;64.04
17060;BME280;8646;49.716;9.266;2023-05-11T15:12:12;99948.13;;;18.85;64.29
17060;BME280;8646;49.716;9.266;2023-05-11T15:15:15;99947.13;;;18.86;64.50
17060;BME280;8646;49.716;9.266;2023-05-11T15:18:18;99951.50;;;18.88;64.89
17060;BME280;8646;49.716;9.266;2023-05-11T15:21:21;99950.63;;;18.88;65.08
17060;BME280;8646;49.716;9.266;2023-05-11T15:24:24;99948.25;;;18.83;65.55
17060;BME280;8646;49.716;9.266;2023-05-11T15:27:28;99946.16;;;18.76;64.85
17060;BME280;8646;49.716;9.266;2023-05-11T15:30:31;99950.91;;;18.62;65.69
17060;BME280;8646;49.716;9.266;2023-05-11T15:33:34;99959.09;;;18.51;66.94
17060;BME280;8646;49.716;9.266;2023-05-11T15:36:37;99955.75;;;18.48;67.56
17060;BME280;8646;49.716;9.266;2023-05-11T15:39:40;99963.31;;;18.44;68.12
17060;BME280;8646;49.716;9.266;2023-05-11T15:42:46;99960.81;;;18.41;68.53
17060;BME280;8646;49.716;9.266;2023-05-11T15:45:49;99966.81;;;18.46;68.96
17060;BME280;8646;49.716;9.266;2023-05-11T15:48:52;99967.06;;;18.43;68.69
17060;BME280;8646;49.716;9.266;2023-05-11T15:51:57;99964.78;;;18.26;69.70
17060;BME280;8646;49.716;9.266;2023-05-11T15:55:00;99951.09;;;18.15;69.77
17060;BME280;8646;49.716;9.266;2023-05-11T15:58:06;99964.78;;;18.15;69.68
17060;BME280;8646;49.716;9.266;2023-05-11T16:01:09;99967.75;;;18.12;69.27
17060;BME280;8646;49.716;9.266;2023-05-11T16:04:12;99963.38;;;17.98;69.20
17060;BME280;8646;49.716;9.266;2023-05-11T16:07:15;99965.75;;;17.91;70.28
17060;BME280;8646;49.716;9.266;2023-05-11T16:10:18;99967.84;;;17.88;71.51
17060;BME280;8646;49.716;9.266;2023-05-11T16:13:22;99966.47;;;17.82;72.05
17060;BME280;8646;49.716;9.266;2023-05-11T16:16:25;99967.19;;;17.73;72.21
17060;BME280;8646;49.716;9.266;2023-05-11T16:19:29;99967.19;;;17.61;72.00
17060;BME280;8646;49.716;9.266;2023-05-11T16:22:31;99964.72;;;17.58;72.22
17060;BME280;8646;49.716;9.266;2023-05-11T16:25:36;99963.03;;;17.44;73.41
17060;BME280;8646;49.716;9.266;2023-05-11T16:28:40;99967.69;;;17.31;74.48
17060;BME280;8646;49.716;9.266;2023-05-11T16:31:44;99974.41;;;17.27;75.25